Flight Track Log - Related Links

Times and Time Zones

All times are in EDT time to prevent confusion due to time zone crossing. See the N5QG flight status page for this flight to view local times or setup timezone preferences in your user account.

Time Position Orientation Groundspeed Altitude Reporting Facility
EDT Latitude Longitude Course Direction KTS MPH feet Rate Location/Type
Thu 12:07:34 PM 19.1711 -72.5747 334° Northwest 438 504 28,000  Level Miami Center
Thu 12:08:34 PM 19.2661 -72.6247 334° Northwest 450 518 28,000  Level Miami Center
Thu 12:09:34 PM 19.3956 -72.7086 329° Northwest 459 528 28,000  Level Miami Center
Thu 12:10:34 PM 19.4975 -72.7825 326° Northwest 453 521 28,000  Level Miami Center
Thu 12:11:34 PM 19.6056 -72.8564 327° Northwest 453 521 28,000  Level Miami Center
Thu 12:12:34 PM 19.7158 -72.9281 329° Northwest 453 521 28,000  Level Miami Center
Thu 12:13:34 PM 19.8242 -73.0022 327° Northwest 459 528 28,000  Level Miami Center
Thu 12:14:34 PM 19.9322 -73.0764 327° Northwest 464 534 28,000  Level Miami Center
Thu 12:15:34 PM 20.0383 -73.1531 326° Northwest 469 540 28,000  Level Miami Center
Thu 12:16:34 PM 20.1464 -73.2253 328° Northwest 469 540 28,000  Level Miami Center
Thu 12:17:34 PM 20.2442 -73.3089 321° Northwest 462 532 28,000  Level Miami Center
Thu 12:18:34 PM 20.3464 -73.3992 320° Northwest 462 532 28,000  Level Miami Center
Thu 12:19:34 PM 20.4422 -73.4853 320° Northwest 462 532 28,000  Level Miami Center
Thu 12:20:34 PM 20.5419 -73.5692 322° Northwest 462 532 28,000  Level Miami Center
Thu 12:21:34 PM 20.6419 -73.6553 321° Northwest 462 532 28,000  Level Miami Center
Thu 12:22:34 PM 20.7394 -73.7353 323° Northwest 456 525 28,000  Level Miami Center
Thu 12:23:34 PM 20.8392 -73.8172 322° Northwest 451 519 28,000  Level Miami Center
Thu 12:24:34 PM 20.9367 -73.8950 323° Northwest 451 519 28,000  Level Miami Center
Thu 12:25:34 PM 21.0364 -73.9750 323° Northwest 446 513 28,000  Level Miami Center
Thu 12:26:34 PM 21.1400 -74.0508 326° Northwest 451 519 28,000  Level Miami Center
Thu 12:27:34 PM 21.2397 -74.1333 322° Northwest 451 519 28,000  Level Miami Center
Thu 12:28:34 PM 21.3392 -74.2069 325° Northwest 440 506 28,000  Level Miami Center
Thu 12:29:34 PM 21.4303 -74.2856 321° Northwest 440 506 28,000  Level Miami Center
Thu 12:30:34 PM 21.5194 -74.3753 317° Northwest 434 499 28,000  Level Miami Center
Thu 12:31:34 PM 21.6106 -74.4608 319° Northwest 434 499 28,000  Level Miami Center
Thu 12:32:34 PM 21.7014 -74.5417 320° Northwest 429 494 28,000  Level Miami Center
Thu 12:33:34 PM 21.7906 -74.6297 317° Northwest 429 494 28,000  Level Miami Center
Thu 12:34:34 PM 21.8836 -74.7153 320° Northwest 429 494 28,000  Level Miami Center
Thu 12:35:34 PM 21.9747 -74.8033 318° Northwest 434 499 28,000  Level Miami Center
Thu 12:36:34 PM 22.0719 -74.8869 321° Northwest 434 499 28,000  Level Miami Center
Thu 12:37:34 PM 22.1628 -74.9708 319° Northwest 439 505 28,000  Level Miami Center
Thu 12:38:34 PM 22.2536 -75.0569 319° Northwest 439 505 28,000  Level Miami Center
Thu 12:39:34 PM 22.3486 -75.1389 321° Northwest 439 505 28,000  Level Miami Center
Thu 12:40:34 PM 22.4414 -75.2275 319° Northwest 439 505 28,000  Level Miami Center
Thu 12:41:34 PM 22.5342 -75.3117 320° Northwest 439 505 28,000  Level Miami Center
Thu 12:42:34 PM 22.6269 -75.3961 320° Northwest 439 505 28,000  Level Miami Center
Thu 12:43:34 PM 22.7197 -75.4831 319° Northwest 439 505 28,000  Level Miami Center
Thu 12:44:34 PM 22.8103 -75.5653 320° Northwest 434 499 28,000  Level Miami Center
Thu 12:45:34 PM 22.9031 -75.6525 319° Northwest 434 499 28,000  Level Miami Center
Thu 12:46:34 PM 22.9831 -75.7261 320° Northwest 434 499 28,000  Level Miami Center
Thu 12:47:34 PM 23.0733 -75.8111 319° Northwest 434 499 28,000  Level Miami Center
Thu 12:48:34 PM 23.1658 -75.8961 320° Northwest 434 499 28,000  Level Miami Center
Thu 12:49:34 PM 23.2542 -75.9814 318° Northwest 434 499 28,000  Level Miami Center
Thu 12:50:34 PM 23.3467 -76.0669 320° Northwest 434 499 28,000  Level Miami Center
Thu 12:51:34 PM 23.4369 -76.1522 319° Northwest 434 499 28,000  Level Miami Center
Thu 12:52:34 PM 23.5314 -76.2381 320° Northwest 434 499 28,000  Level Miami Center
Thu 12:53:34 PM 23.6217 -76.3258 318° Northwest 434 499 28,000  Level Miami Center
Thu 12:54:34 PM 23.7139 -76.4117 320° Northwest 439 505 28,000  Level Miami Center
Thu 12:55:34 PM 23.8164 -76.5092 319° Northwest 439 505 28,000  Level Miami Center
Thu 12:56:34 PM 23.9128 -76.5975 320° Northwest 439 505 28,000  Level Miami Center
Thu 12:57:34 PM 24.0047 -76.6883 318° Northwest 439 505 28,000  Level Miami Center
Thu 12:58:34 PM 24.0969 -76.7769 319° Northwest 439 505 28,000  Level Miami Center
Thu 12:59:34 PM 24.1806 -76.8542 320° Northwest 439 505 28,000  Level Miami Center
Thu 01:00:34 PM 24.2558 -76.9569 309° West 432 497 28,000  Level Miami Center
Thu 01:01:34 PM 24.3308 -77.0617 308° West 432 497 28,000  Level Miami Center
Thu 01:02:34 PM 24.3975 -77.1714 304° West 432 497 28,000  Level Miami Center
Thu 01:03:34 PM 24.4600 -77.2836 301° West 432 497 28,000  Level Miami Center
Thu 01:04:34 PM 24.5244 -77.3956 302° West 432 497 28,000  Level Miami Center
Thu 01:05:34 PM 24.5847 -77.5078 301° West 426 490 28,000  Level Miami Center
Thu 01:06:34 PM 24.6719 -77.6044 315° West 431 496 28,000  Level Miami Center
Thu 01:07:34 PM 24.7781 -77.6806 327° Northwest 436 502 28,000  Level Miami Center
Thu 01:08:34 PM 24.8925 -77.7661 326° Northwest 443 510 28,000  Level Miami Center
Thu 01:09:34 PM 25.0028 -77.8403 329° Northwest 453 521 28,000  Level Miami Center
Thu 01:10:34 PM 25.1131 -77.9100 330° Northwest 453 521 28,000  Level Miami Center
Thu 01:11:34 PM 25.2214 -77.9822 329° Northwest 453 521 28,000 -300 Level Miami Center
Thu 01:12:34 PM 25.3294 -78.0544 329° Northwest 453 521 27,400 -900 Descending Miami Center
Thu 01:13:34 PM 25.4311 -78.1197 330° Northwest 440 506 26,200 -1,400 Descending Miami Center
Thu 01:14:34 PM 25.5308 -78.1875 328° Northwest 423 487 24,600 -1,750 Descending Miami Center
Thu 01:15:34 PM 25.6033 -78.2783 312° West 392 451 22,700 -1,800 Descending Miami Center
Thu 01:16:34 PM 25.6231 -78.3961 281° West 380 437 21,000 -1,000 Descending Miami Center
Thu 01:17:34 PM 25.6467 -78.5139 283° West 380 437 20,700 -1,400 Descending Miami Center
Thu 01:18:34 PM 25.6683 -78.6294 282° West 380 437 18,200 -2,200 Descending Miami Center
Thu 01:19:34 PM 25.6919 -78.7453 283° West 386 444 16,300 -1,250 Descending Miami Center
Thu 01:20:34 PM 25.7136 -78.8539 283° West 381 438 15,700 -1,250 Descending Miami Center
Thu 01:21:34 PM 25.7289 -78.9603 279° West 367 422 13,800 -1,850 Descending Miami Center
Thu 01:22:34 PM 25.7522 -79.0667 284° West 357 411 12,000 -1,700 Descending Miami Center
Thu 01:23:34 PM 25.7675 -79.1639 280° West 345 397 10,400 -1,400 Descending Miami Center
Thu 01:24:34 PM 25.7769 -79.2333 279° West 322 371 9,200 -1,300 Descending Miami Center
Thu 01:25:34 PM 25.7981 -79.3375 283° West 287 330 7,800 -1,150 Descending Miami Center
Thu 01:26:34 PM 25.8114 -79.4233 280° West 282 325 6,900 -973 Descending Miami Center
Thu 01:27:25 PM 25.8267 -79.5022 282° West 288 331 6,000 -911 Descending Miami Center
Thu 01:28:26 PM 25.8417 -79.5878 281° West 288 331 5,200 -930 Descending Miami Center
Thu 01:29:34 PM 25.8947 -79.6583 310° West 277 319 4,000 -1,031 Descending Miami Center
Thu 01:30:34 PM 25.9717 -79.6764 348° North 263 303 3,000 -500 Descending Miami Center
Thu 01:31:34 PM 26.0464 -79.6989 345° North 263 303 3,000  Level Miami Center
Thu 01:32:31 PM 26.1150 -79.7214 344° North 273 314 3,000  Level Miami Center
Thu 01:33:33 PM 26.1939 -79.7442 345° North 293 337 3,000  Level Miami Center
Thu 01:34:34 PM 26.2514 -79.7986 320° Northwest 269 310 3,000  Level Miami Center
Thu 01:35:34 PM 26.2581 -79.8822 275° West 244 281 3,000  Level Miami Center
Thu 01:36:37 PM 26.2686 -79.9728 277° West 264 304 3,000  Level Miami Center
Thu 01:37:44 PM 26.2753 -80.0542 275° West 208 239 3,000 -293 Level Miami Center
Thu 01:38:40 PM 26.2761 -80.1122 271° West 205 236 2,400 -564 Descending Miami Center
Thu 01:39:41 PM 26.2683 -80.1722 262° West 176 203 1,900 -246 Descending Miami Center
Thu 01:40:42 PM 26.2464 -80.2156 241° Southwest 173 199 1,900 -512 Level Miami Center
Thu 01:41:50 PM 26.2025 -80.2167 181° South 148 170 800 -971 Descending Miami Center
Thu 01:43:00 PM 26.1833 -80.1667 110° East  Level FlightAware Approximate
Thu 01:50:00 PM 26.1973 -80.1707 110° East  Level Estimated

Login

Don't have an account? Register now (free) for customized features, flight alerts, and more!